Van Meter, Iowa
Current Conditions -  °F | °C
As of 12:32 AM on Wednesday 28 Jan 2015 (Local Time) from KDSM Reporting Station
Broken Clouds Broken Clouds  
Wind Chill: 21°   Ceiling: 700
Heat Index: 30°   Visibility: 7mi
Dew Point: 26°   Wind: 10mph
Humidity: 85%   Direction: 130°SE
Pressure: 30.11"   Gusts: NA
Location:  41.53°N, 93.95°W
Report Text: KDSM 280632Z 13009KT 7SM BKN007 M01/M03 A3011 RMK AO2 T10111033
Loading
Personal Weather Stations






























Interactive Weather Map New forecast layout! Learn more

10-Day Weather Forecast

Advertisements
Track Severe Weather on mobile